createdAt,value
2023-05-22T00:02:28.518Z,53.86
2023-05-22T00:07:30.143Z,53.60
2023-05-22T00:12:31.674Z,53.56
2023-05-22T00:17:34.137Z,54.00
2023-05-22T00:22:36.094Z,53.44
2023-05-22T00:27:37.689Z,53.28
2023-05-22T00:32:39.356Z,53.55
2023-05-22T00:37:41.355Z,53.62
2023-05-22T00:42:43.986Z,53.78
2023-05-22T00:47:46.419Z,53.85
2023-05-22T00:52:48.057Z,54.50
2023-05-22T00:57:50.091Z,54.53
2023-05-22T01:02:51.725Z,53.79
2023-05-22T01:07:53.364Z,53.80
2023-05-22T01:13:06.985Z,53.73
2023-05-22T01:18:25.055Z,52.99
2023-05-22T01:23:42.750Z,52.95
2023-05-22T01:29:05.606Z,53.92
2023-05-22T01:34:10.466Z,53.67
2023-05-22T01:39:12.092Z,53.24
2023-05-22T01:44:13.635Z,53.75
2023-05-22T01:49:15.372Z,53.60
2023-05-22T01:54:25.081Z,53.37
2023-05-22T01:59:34.761Z,53.84
2023-05-22T02:04:39.695Z,56.12
2023-05-22T02:09:41.338Z,56.84
2023-05-22T02:14:43.080Z,55.21
2023-05-22T02:19:45.048Z,54.24
2023-05-22T02:24:47.309Z,55.52
2023-05-22T02:29:48.704Z,57.14
2023-05-22T02:34:50.200Z,58.54
2023-05-22T02:39:51.823Z,57.52
2023-05-22T02:44:53.351Z,57.04
2023-05-22T02:49:54.918Z,57.44
2023-05-22T02:54:56.507Z,58.64
2023-05-22T02:59:59.182Z,57.90
2023-05-22T03:05:00.728Z,57.84
2023-05-22T03:10:02.365Z,56.43
2023-05-22T03:15:04.051Z,57.23
2023-05-22T03:20:06.786Z,54.63
2023-05-22T03:25:09.460Z,55.46
2023-05-22T03:30:11.403Z,54.67
2023-05-22T03:35:15.460Z,55.19
2023-05-22T03:40:17.023Z,55.21
2023-05-22T03:45:18.558Z,55.28
2023-05-22T03:50:20.109Z,55.98
2023-05-22T03:55:21.673Z,55.93
2023-05-22T04:00:23.867Z,55.74
2023-05-22T04:05:26.325Z,56.77
2023-05-22T04:10:27.917Z,59.21
2023-05-22T04:15:29.438Z,58.64
2023-05-22T04:20:32.240Z,59.39
2023-05-22T04:25:34.423Z,59.16
2023-05-22T04:30:37.749Z,59.42
2023-05-22T04:35:40.767Z,59.44
2023-05-22T04:40:43.600Z,59.44
2023-05-22T04:45:45.176Z,59.89
2023-05-22T04:50:47.241Z,58.91
2023-05-22T04:55:49.241Z,59.68
2023-05-22T05:00:52.533Z,59.55
2023-05-22T05:05:54.231Z,59.87
2023-05-22T05:10:55.830Z,59.80
2023-05-22T05:15:58.876Z,61.69
2023-05-22T05:21:00.418Z,61.86
2023-05-22T05:26:02.018Z,61.57
2023-05-22T05:31:03.590Z,62.00
2023-05-22T05:36:05.532Z,61.91
2023-05-22T05:41:07.062Z,61.82
2023-05-22T05:46:08.644Z,61.76
2023-05-22T05:51:10.244Z,61.55
2023-05-22T05:56:11.841Z,60.65
2023-05-22T06:01:13.382Z,60.74
2023-05-22T06:06:15.356Z,60.33
2023-05-22T06:11:16.896Z,59.94
2023-05-22T06:16:18.549Z,58.36
2023-05-22T06:21:22.712Z,61.12
2023-05-22T06:26:25.960Z,61.43
2023-05-22T06:31:28.106Z,61.57
2023-05-22T06:36:29.719Z,62.96
2023-05-22T06:41:32.580Z,62.37
2023-05-22T06:46:34.259Z,61.86
2023-05-22T06:51:35.895Z,61.90
2023-05-22T06:56:37.470Z,62.59
2023-05-22T07:01:39.172Z,63.41
2023-05-22T07:06:41.773Z,62.40
2023-05-22T07:11:43.962Z,61.70
2023-05-22T07:16:45.586Z,60.82
2023-05-22T07:21:47.175Z,60.62
2023-05-22T07:26:49.490Z,60.73
2023-05-22T07:31:51.051Z,60.71
2023-05-22T07:36:54.084Z,60.51
2023-05-22T07:41:57.238Z,60.51
2023-05-22T07:46:59.673Z,60.81
2023-05-22T07:52:01.265Z,60.01
2023-05-22T07:57:03.708Z,60.61
2023-05-22T08:02:05.705Z,63.24
2023-05-22T08:07:07.315Z,61.93
2023-05-22T08:12:09.056Z,62.11
2023-05-22T08:17:11.085Z,60.89
2023-05-22T08:22:12.675Z,60.39
2023-05-22T08:27:14.244Z,59.42
2023-05-22T08:32:15.775Z,59.80
2023-05-22T08:37:17.384Z,59.10
2023-05-22T08:42:18.920Z,59.48
2023-05-22T08:47:20.540Z,59.21
2023-05-22T08:52:22.415Z,59.07
2023-05-22T08:57:23.946Z,59.88
2023-05-22T09:02:25.787Z,60.18
2023-05-22T09:07:27.906Z,60.23
2023-05-22T09:12:29.482Z,60.19
2023-05-22T09:17:31.218Z,60.77
2023-05-22T09:22:39.200Z,61.84
2023-05-22T09:27:40.767Z,61.45
2023-05-22T09:32:42.349Z,62.28
2023-05-22T09:37:43.931Z,62.90
2023-05-22T09:42:45.866Z,62.96
2023-05-22T09:47:51.020Z,63.21
2023-05-22T09:52:52.996Z,63.67
2023-05-22T09:57:54.529Z,63.75
2023-05-22T10:03:03.691Z,66.03
2023-05-22T10:08:10.739Z,65.85
2023-05-22T10:13:12.290Z,65.29
2023-05-22T10:18:14.540Z,65.37
2023-05-22T10:23:16.565Z,65.50
2023-05-22T10:28:29.391Z,66.99
2023-05-22T10:33:40.151Z,67.46
2023-05-22T10:38:56.186Z,66.97
2023-05-22T10:43:58.790Z,67.76
2023-05-22T10:49:00.431Z,66.34
2023-05-22T10:54:05.618Z,68.14
2023-05-22T10:59:08.334Z,65.98
2023-05-22T11:04:16.047Z,66.08
2023-05-22T11:09:24.673Z,66.47
2023-05-22T11:14:26.216Z,66.63
2023-05-22T11:19:27.822Z,67.16
2023-05-22T11:24:32.554Z,66.45
2023-05-22T11:29:34.268Z,65.74
2023-05-22T11:34:35.824Z,65.66
2023-05-22T11:39:37.416Z,64.89
2023-05-22T11:44:39.324Z,64.10
2023-05-22T11:49:42.164Z,65.62
2023-05-22T11:54:47.260Z,64.47
2023-05-22T11:59:48.911Z,64.58
2023-05-22T12:04:56.796Z,63.69
2023-05-22T12:09:58.610Z,63.83
2023-05-22T12:15:00.176Z,63.24
2023-05-22T12:20:01.702Z,62.51
2023-05-22T12:25:03.246Z,61.75
2023-05-22T12:30:11.922Z,62.26
2023-05-22T12:35:17.142Z,62.48
2023-05-22T12:40:18.975Z,61.81
2023-05-22T12:45:20.508Z,61.04
2023-05-22T12:50:22.079Z,61.06
2023-05-22T12:55:23.615Z,60.65
2023-05-22T13:00:25.167Z,60.17
2023-05-22T13:05:26.735Z,59.70
2023-05-22T13:10:28.285Z,59.27
2023-05-22T13:15:31.293Z,58.37
2023-05-22T13:20:32.996Z,59.39
2023-05-22T13:25:34.564Z,58.41
2023-05-22T13:30:36.130Z,58.37
2023-05-22T13:35:37.868Z,58.25
2023-05-22T13:40:39.540Z,58.15
2023-05-22T13:45:41.342Z,58.41
2023-05-22T13:50:42.976Z,58.61
2023-05-22T13:55:44.533Z,58.76
2023-05-22T14:00:46.092Z,58.75
2023-05-22T14:05:47.986Z,58.61
2023-05-22T14:10:49.528Z,59.19
2023-05-22T14:15:51.062Z,58.20
2023-05-22T14:20:52.619Z,58.42
2023-05-22T14:25:54.184Z,59.13
2023-05-22T14:30:55.829Z,59.63
2023-05-22T14:35:57.388Z,58.88
2023-05-22T14:40:59.233Z,59.65
2023-05-22T14:46:00.996Z,60.20
2023-05-22T14:51:02.590Z,60.99
2023-05-22T14:56:04.719Z,60.90
2023-05-22T15:01:06.285Z,61.17
2023-05-22T15:06:07.882Z,61.50
2023-05-22T15:11:09.431Z,60.93
2023-05-22T15:16:10.991Z,61.37
2023-05-22T15:21:12.526Z,61.07
2023-05-22T15:26:14.071Z,61.42
2023-05-22T15:31:15.816Z,62.93
2023-05-22T15:36:17.406Z,61.95
2023-05-22T15:41:19.040Z,61.13
2023-05-22T15:46:20.756Z,59.43
2023-05-22T15:51:22.399Z,59.06
2023-05-22T15:56:24.112Z,58.55
2023-05-22T16:01:26.025Z,57.46
2023-05-22T16:06:28.454Z,57.29
2023-05-22T16:11:30.129Z,56.87
2023-05-22T16:16:31.749Z,57.05
2023-05-22T16:21:33.425Z,58.53
2023-05-22T16:26:37.554Z,60.82
2023-05-22T16:31:39.193Z,63.80
2023-05-22T16:36:40.840Z,63.58
2023-05-22T16:41:42.416Z,62.79
2023-05-22T16:46:44.021Z,62.55
2023-05-22T16:51:45.794Z,62.68
2023-05-22T16:56:47.339Z,63.19
2023-05-22T17:01:48.974Z,61.88
2023-05-22T17:06:53.671Z,59.13
2023-05-22T17:11:55.248Z,60.83
2023-05-22T17:16:56.781Z,59.67
2023-05-22T17:21:58.536Z,58.07
2023-05-22T17:27:00.593Z,58.19
2023-05-22T17:32:02.381Z,56.81
2023-05-22T17:37:04.001Z,55.93
2023-05-22T17:42:06.074Z,56.68
2023-05-22T17:47:07.615Z,55.58
2023-05-22T17:52:09.160Z,54.61
2023-05-22T17:57:11.031Z,54.70
2023-05-22T18:02:12.564Z,53.97
2023-05-22T18:07:15.954Z,53.63
2023-05-22T18:12:31.129Z,53.25
2023-05-22T18:17:33.786Z,52.96
2023-05-22T18:22:37.146Z,52.47
2023-05-22T18:27:38.728Z,53.33
2023-05-22T18:32:40.379Z,52.17
2023-05-22T18:37:42.037Z,52.88
2023-05-22T18:42:43.783Z,52.73
2023-05-22T18:47:45.444Z,51.74
2023-05-22T18:52:47.024Z,51.19
2023-05-22T18:57:48.592Z,52.25
2023-05-22T19:02:50.235Z,52.08
2023-05-22T19:07:51.886Z,52.05
2023-05-22T19:12:53.413Z,52.61
2023-05-22T19:17:55.035Z,52.83
2023-05-22T19:22:56.595Z,52.66
2023-05-22T19:27:58.137Z,52.79
2023-05-22T19:32:59.718Z,53.32
2023-05-22T19:38:01.374Z,53.39
2023-05-22T19:43:02.910Z,53.53
2023-05-22T19:48:04.498Z,52.97
2023-05-22T19:53:06.166Z,53.38
2023-05-22T19:58:07.709Z,53.52
2023-05-22T20:03:09.488Z,53.38
2023-05-22T20:08:11.179Z,53.88
2023-05-22T20:13:12.716Z,54.04
2023-05-22T20:18:14.563Z,54.22
2023-05-22T20:23:16.099Z,55.12
2023-05-22T20:28:17.622Z,54.25
2023-05-22T20:33:19.415Z,54.40
2023-05-22T20:38:22.363Z,54.53
2023-05-22T20:43:26.133Z,54.02
2023-05-22T20:48:27.667Z,55.04
2023-05-22T20:53:29.221Z,55.30
2023-05-22T20:58:30.885Z,54.97
2023-05-22T21:03:32.488Z,54.86
2023-05-22T21:08:34.086Z,55.25
2023-05-22T21:13:35.626Z,55.16
2023-05-22T21:18:37.195Z,55.03
2023-05-22T21:23:39.252Z,55.37
2023-05-22T21:28:42.372Z,55.26
2023-05-22T21:33:43.974Z,55.29
2023-05-22T21:38:45.834Z,55.38
2023-05-22T21:43:47.419Z,55.90
2023-05-22T21:48:48.992Z,55.90
2023-05-22T21:53:50.534Z,56.93
2023-05-22T21:58:52.056Z,57.11
2023-05-22T22:03:53.808Z,56.84
2023-05-22T22:08:57.866Z,56.61
2023-05-22T22:13:59.396Z,56.13
2023-05-22T22:19:04.059Z,56.04
2023-05-22T22:24:05.902Z,56.87
2023-05-22T22:29:07.995Z,56.92
2023-05-22T22:34:09.596Z,57.04
2023-05-22T22:39:11.190Z,56.88
2023-05-22T22:44:12.734Z,57.09
2023-05-22T22:49:15.770Z,57.45
2023-05-22T22:54:17.640Z,58.50
2023-05-22T22:59:19.339Z,59.41
2023-05-22T23:04:21.100Z,59.32
2023-05-22T23:09:22.739Z,59.00
2023-05-22T23:14:24.822Z,58.36
2023-05-22T23:19:26.857Z,60.36
2023-05-22T23:24:28.517Z,60.22
2023-05-22T23:29:30.071Z,60.21
2023-05-22T23:34:31.605Z,61.18
2023-05-22T23:39:33.157Z,60.44
2023-05-22T23:44:34.688Z,60.76
2023-05-22T23:49:36.450Z,60.91
2023-05-22T23:54:38.015Z,61.46
2023-05-22T23:59:40.449Z,62.39
